Lewiston, Idaho
Current Conditions -  °F | °C
As of 9:56 AM on Saturday 20 Dec 2014 (Local Time) from KLWS Reporting Station
Broken Clouds Broken Clouds  
Wind Chill: 36°   Ceiling: 7500
Heat Index: 41°   Visibility: 10mi
Dew Point: 37°   Wind: 7mph
Humidity: 86%   Direction: 70°ENE
Pressure: 29.87"   Gusts: NA
Location:  46.42°N, 117.01°W
Report Text: KLWS 201756Z 07006KT 10SM SCT060 BKN075 05/03 A2987 RMK AO2 SLP124 60000 T00500028 10050 20017 56012
Loading
Personal Weather Stations






























Interactive Weather Map New forecast layout! Learn more

10-Day Weather Forecast

Advertisements
Track Severe Weather on mobile